Time;durP1;ratioP1;P1;durP2;ratioP2;P2;SDS_P1;SDS_P2;PMS_P1;PMS_P2;Temp;Humidity;BMP_temperature;BMP_pressure;BME280_temperature;BME280_humidity;BME280_pressure;Samples;Min_cycle;Max_cycle;Signal;HPM_P1;HPM_P2
2023/05/10 00:01:12;;;;;;;5.60;1.10;;;18.80;53.80;;;;;;5030797;28;20185;-70
2023/05/10 00:03:38;;;;;;;5.60;1.30;;;18.80;53.60;;;;;;5030932;28;20184;-69
2023/05/10 00:06:03;;;;;;;5.53;1.20;;;18.60;54.70;;;;;;5033448;28;20203;-69
2023/05/10 00:08:29;;;;;;;5.50;1.40;;;18.60;52.90;;;;;;5032478;28;20186;-70
2023/05/10 00:10:54;;;;;;;5.30;1.20;;;18.60;56.20;;;;;;5032614;28;20208;-69
2023/05/10 00:13:20;;;;;;;5.40;1.40;;;18.30;54.50;;;;;;5032084;28;20269;-70
2023/05/10 00:15:46;;;;;;;5.37;1.30;;;18.30;55.90;;;;;;5035423;28;20624;-69
2023/05/10 00:18:11;;;;;;;5.37;1.20;;;18.20;54.50;;;;;;5033495;28;20268;-69
2023/05/10 00:20:37;;;;;;;5.30;1.20;;;18.00;56.00;;;;;;5033450;28;20185;-71
2023/05/10 00:23:03;;;;;;;5.17;1.23;;;18.10;56.40;;;;;;5029936;28;20184;-69
2023/05/10 00:25:28;;;;;;;5.90;1.33;;;17.90;57.20;;;;;;5035819;28;20201;-70
2023/05/10 00:27:55;;;;;;;5.17;1.23;;;18.10;56.60;;;;;;5033265;28;20551;-69
2023/05/10 00:30:20;;;;;;;5.10;1.20;;;17.90;57.60;;;;;;5033291;28;20246;-70
2023/05/10 00:32:47;;;;;;;5.20;1.20;;;18.10;56.10;;;;;;5031386;28;20921;-69
2023/05/10 00:35:13;;;;;;;5.00;1.20;;;17.90;57.20;;;;;;5045238;28;20593;-69
2023/05/10 00:37:39;;;;;;;5.20;1.33;;;18.00;58.60;;;;;;5033458;28;20416;-70
2023/05/10 00:40:05;;;;;;;5.10;1.20;;;17.80;58.30;;;;;;5033067;28;20225;-69
2023/05/10 00:42:31;;;;;;;5.00;1.20;;;18.20;56.20;;;;;;5031701;28;20188;-69
2023/05/10 00:44:57;;;;;;;4.97;1.30;;;17.80;58.00;;;;;;5025936;28;21060;-69
2023/05/10 00:47:23;;;;;;;4.87;1.30;;;17.40;60.30;;;;;;5029951;28;20185;-69
2023/05/10 00:49:49;;;;;;;4.60;1.20;;;16.60;66.00;;;;;;5031917;28;20533;-69
2023/05/10 00:52:15;;;;;;;4.70;1.33;;;16.70;70.10;;;;;;5032623;28;20220;-69
2023/05/10 00:54:41;;;;;;;4.60;1.20;;;17.20;65.40;;;;;;5029912;28;20474;-69
2023/05/10 00:57:06;;;;;;;4.60;1.30;;;17.30;62.30;;;;;;5036314;28;20442;-69
2023/05/10 00:59:32;;;;;;;4.60;1.20;;;17.20;63.60;;;;;;5032572;28;20423;-69
2023/05/10 01:01:58;;;;;;;4.50;1.20;;;16.80;67.50;;;;;;5032819;28;20177;-69
2023/05/10 01:04:25;;;;;;;3.43;1.10;;;16.80;67.60;;;;;;5030777;28;20203;-69
2023/05/10 01:06:52;;;;;;;3.50;1.20;;;17.00;66.80;;;;;;5032711;28;20667;-69
2023/05/10 01:09:18;;;;;;;3.40;1.17;;;17.30;65.90;;;;;;5032495;28;20504;-69
2023/05/10 01:11:45;;;;;;;3.50;1.20;;;17.20;64.60;;;;;;5032544;28;20459;-69
2023/05/10 01:14:10;;;;;;;3.40;1.20;;;17.10;63.70;;;;;;5030397;28;20900;-69
2023/05/10 01:16:40;;;;;;;3.50;1.30;;;17.10;63.00;;;;;;5032448;28;20447;-69
2023/05/10 01:19:18;;;;;;;3.30;1.20;;;17.20;61.30;;;;;;5029487;28;20211;-70
2023/05/10 01:22:07;;;;;;;3.23;1.20;;;17.70;60.70;;;;;;5030641;28;20493;-69
2023/05/10 01:24:51;;;;;;;3.20;1.20;;;17.80;57.50;;;;;;5030607;28;20550;-70
2023/05/10 01:27:34;;;;;;;3.30;1.30;;;18.00;57.10;;;;;;5030708;28;20431;-69
2023/05/10 01:30:31;;;;;;;3.30;1.30;;;17.50;57.00;;;;;;5024999;28;20435;-69
2023/05/10 01:33:15;;;;;;;3.30;1.30;;;17.80;57.60;;;;;;5025230;28;20980;-70
2023/05/10 01:35:55;;;;;;;3.00;1.10;;;18.00;56.10;;;;;;5031170;28;20534;-69
2023/05/10 01:38:39;;;;;;;3.10;1.20;;;18.00;54.80;;;;;;5030902;28;20443;-69
2023/05/10 01:41:17;;;;;;;3.23;1.23;;;18.20;55.30;;;;;;5030994;28;20522;-69
2023/05/10 01:43:50;;;;;;;3.20;1.20;;;18.50;52.60;;;;;;5023246;28;20804;-70
2023/05/10 01:46:20;;;;;;;3.20;1.13;;;18.30;52.60;;;;;;5031091;28;20427;-69
2023/05/10 01:48:53;;;;;;;3.27;1.20;;;18.10;53.00;;;;;;5012279;28;20469;-69
2023/05/10 01:51:23;;;;;;;3.20;1.27;;;17.70;54.60;;;;;;5029526;28;20469;-69
2023/05/10 01:53:56;;;;;;;3.30;1.30;;;17.20;57.10;;;;;;5031359;28;20482;-69
2023/05/10 01:56:26;;;;;;;3.20;1.20;;;17.30;58.60;;;;;;5031338;28;20409;-69
2023/05/10 01:58:53;;;;;;;3.33;1.20;;;17.60;57.80;;;;;;5031102;28;20532;-69
2023/05/10 02:01:21;;;;;;;3.30;1.30;;;17.40;55.40;;;;;;5030282;28;20949;-69
2023/05/10 02:03:48;;;;;;;3.30;1.30;;;16.90;59.60;;;;;;5030860;28;20499;-69
2023/05/10 02:06:16;;;;;;;3.30;1.30;;;17.50;57.00;;;;;;5030539;28;20440;-69
2023/05/10 02:08:45;;;;;;;2.83;1.27;;;17.50;57.50;;;;;;5039127;28;20509;-70
2023/05/10 02:11:13;;;;;;;2.80;1.20;;;17.90;54.70;;;;;;5028832;28;20470;-70
2023/05/10 02:13:40;;;;;;;2.77;1.17;;;17.90;55.10;;;;;;5030309;28;20518;-69
2023/05/10 02:16:07;;;;;;;2.70;1.20;;;17.80;54.50;;;;;;5031376;28;20488;-69
2023/05/10 02:18:34;;;;;;;2.77;1.27;;;17.70;55.70;;;;;;5031542;28;20902;-69
2023/05/10 02:21:01;;;;;;;2.70;1.20;;;18.00;55.10;;;;;;5031512;28;20407;-69
2023/05/10 02:23:29;;;;;;;2.63;1.20;;;18.20;53.40;;;;;;5033469;28;20484;-69
2023/05/10 02:25:56;;;;;;;2.70;1.30;;;18.20;52.30;;;;;;5029417;28;20463;-69
2023/05/10 02:28:23;;;;;;;2.67;1.20;;;18.10;53.20;;;;;;5031281;28;20561;-70
2023/05/10 02:30:50;;;;;;;2.60;1.10;;;17.90;53.80;;;;;;5031258;28;20455;-69
2023/05/10 02:33:17;;;;;;;2.70;1.20;;;17.40;54.70;;;;;;5030136;28;20802;-70
2023/05/10 02:35:42;;;;;;;2.67;1.20;;;17.40;54.50;;;;;;5031131;28;20452;-69
2023/05/10 02:38:11;;;;;;;2.70;1.23;;;17.60;55.70;;;;;;5031226;28;20423;-69
2023/05/10 02:40:37;;;;;;;2.70;1.30;;;17.70;52.50;;;;;;5031591;28;20437;-69
2023/05/10 02:43:05;;;;;;;2.60;1.20;;;17.30;53.40;;;;;;5030533;28;20425;-69
2023/05/10 02:45:34;;;;;;;2.70;1.23;;;16.70;57.30;;;;;;5029916;28;20462;-69
2023/05/10 02:48:00;;;;;;;2.70;1.30;;;16.50;59.50;;;;;;5031174;28;20418;-69
2023/05/10 02:50:32;;;;;;;2.63;1.20;;;16.60;58.20;;;;;;5030189;28;20430;-69
2023/05/10 02:53:04;;;;;;;2.70;1.30;;;16.90;59.00;;;;;;5030382;28;20414;-69
2023/05/10 02:55:37;;;;;;;7.33;1.23;;;17.30;57.60;;;;;;5029342;28;20478;-69
2023/05/10 02:58:04;;;;;;;5.70;1.20;;;17.50;56.30;;;;;;5029520;28;20481;-69
2023/05/10 03:00:29;;;;;;;5.00;1.30;;;17.60;54.10;;;;;;5030172;28;20497;-69
2023/05/10 03:02:55;;;;;;;5.40;1.30;;;17.40;52.50;;;;;;5029882;28;20437;-69
2023/05/10 03:05:21;;;;;;;4.80;1.20;;;17.30;54.40;;;;;;5029641;28;20556;-69
2023/05/10 03:07:47;;;;;;;4.80;1.30;;;17.60;52.90;;;;;;5030934;28;20423;-69
2023/05/10 03:10:12;;;;;;;5.00;1.20;;;17.10;55.10;;;;;;5030689;28;20180;-70
2023/05/10 03:12:46;;;;;;;4.80;1.50;;;17.40;53.20;;;;;;5030328;28;20461;-69
2023/05/10 03:15:37;;;;;;;4.50;1.30;;;17.60;52.30;;;;;;5029538;28;20255;-70
2023/05/10 03:18:22;;;;;;;4.60;1.27;;;17.80;52.50;;;;;;5030390;28;20472;-69
2023/05/10 03:20:50;;;;;;;4.20;1.23;;;17.30;55.30;;;;;;5034527;28;20531;-69
2023/05/10 03:23:35;;;;;;;3.97;1.20;;;16.80;55.80;;;;;;5029995;28;20434;-69
2023/05/10 03:26:02;;;;;;;4.00;1.30;;;16.90;56.20;;;;;;5030505;28;20942;-69
2023/05/10 03:28:28;;;;;;;3.70;1.10;;;17.40;56.50;;;;;;5030908;28;20415;-69
2023/05/10 03:30:56;;;;;;;3.70;1.20;;;17.50;54.50;;;;;;5029182;28;20468;-69
2023/05/10 03:33:21;;;;;;;3.77;1.20;;;17.70;54.80;;;;;;5030491;28;20447;-69
2023/05/10 03:35:47;;;;;;;3.77;1.20;;;17.70;54.70;;;;;;5030507;28;20440;-69
2023/05/10 03:38:13;;;;;;;3.90;1.30;;;17.70;55.30;;;;;;5015948;28;20186;-69
2023/05/10 03:40:39;;;;;;;3.60;1.20;;;17.70;54.40;;;;;;5033524;28;20686;-69
2023/05/10 03:43:05;;;;;;;3.90;1.20;;;17.80;54.50;;;;;;5033349;28;20225;-70
2023/05/10 03:45:30;;;;;;;3.70;1.10;;;17.80;54.90;;;;;;5034345;28;20918;-69
2023/05/10 03:47:57;;;;;;;4.10;1.40;;;18.00;54.20;;;;;;5033622;28;20260;-69
2023/05/10 03:50:23;;;;;;;3.70;1.30;;;18.00;53.30;;;;;;5032312;28;20194;-69
2023/05/10 03:52:49;;;;;;;3.70;1.30;;;17.90;54.70;;;;;;5033803;28;20419;-69
2023/05/10 03:55:14;;;;;;;3.57;1.30;;;17.90;54.20;;;;;;5033258;28;20576;-69
2023/05/10 03:57:40;;;;;;;3.50;1.20;;;18.00;54.00;;;;;;5034237;28;20264;-69
2023/05/10 04:00:06;;;;;;;8.30;1.20;;;18.00;54.40;;;;;;5033105;28;20186;-70
2023/05/10 04:02:32;;;;;;;9.43;1.40;;;18.00;54.20;;;;;;5032404;28;20242;-70
2023/05/10 04:04:57;;;;;;;9.37;1.30;;;18.00;53.80;;;;;;5032873;28;20459;-69
2023/05/10 04:07:23;;;;;;;9.53;1.20;;;18.00;54.30;;;;;;5033037;28;20172;-69
2023/05/10 04:09:49;;;;;;;9.27;1.20;;;17.90;54.80;;;;;;5033610;28;20659;-69
2023/05/10 04:12:14;;;;;;;8.97;1.30;;;17.90;54.70;;;;;;5033115;28;20467;-69
2023/05/10 04:14:40;;;;;;;8.83;1.30;;;18.00;54.60;;;;;;5033085;28;20193;-70
2023/05/10 04:17:06;;;;;;;8.60;1.17;;;17.90;55.40;;;;;;5033645;28;20271;-69
2023/05/10 04:19:32;;;;;;;8.57;1.30;;;18.00;56.70;;;;;;5033494;28;20260;-69
2023/05/10 04:21:57;;;;;;;8.60;1.30;;;20.00;57.20;;;;;;5033767;28;20246;-69
2023/05/10 04:24:23;;;;;;;8.60;1.20;;;18.00;55.20;;;;;;5030633;28;20341;-69
2023/05/10 04:26:49;;;;;;;8.60;1.20;;;18.00;53.90;;;;;;5033785;28;20407;-69
2023/05/10 04:29:14;;;;;;;8.57;1.30;;;18.00;52.20;;;;;;5032639;28;20268;-69
2023/05/10 04:31:40;;;;;;;8.60;1.20;;;17.90;50.90;;;;;;5031709;28;20200;-69
2023/05/10 04:34:06;;;;;;;8.63;1.30;;;17.80;53.40;;;;;;5029231;28;20204;-69
2023/05/10 04:36:36;;;;;;;9.00;1.30;;;17.90;54.00;;;;;;5033035;28;20169;-70
2023/05/10 04:39:05;;;;;;;8.27;1.23;;;18.00;53.60;;;;;;5032499;28;20235;-69
2023/05/10 04:41:31;;;;;;;8.57;1.20;;;17.90;54.10;;;;;;5034172;28;20807;-69
2023/05/10 04:43:56;;;;;;;8.47;1.30;;;17.90;54.00;;;;;;5031450;28;20439;-70
2023/05/10 04:46:22;;;;;;;8.43;1.20;;;18.00;54.30;;;;;;5031395;28;20189;-69
2023/05/10 04:48:47;;;;;;;8.50;1.30;;;18.00;54.10;;;;;;5032312;28;20180;-70
2023/05/10 04:51:13;;;;;;;8.30;1.30;;;18.10;53.60;;;;;;5032795;28;20209;-69
2023/05/10 04:53:39;;;;;;;8.40;1.30;;;17.90;51.10;;;;;;5024700;28;20613;-69
2023/05/10 04:56:05;;;;;;;8.10;1.20;;;18.00;49.80;;;;;;5032097;28;20216;-69
2023/05/10 04:58:31;;;;;;;8.50;1.40;;;17.90;50.90;;;;;;5031427;28;20239;-70
2023/05/10 05:00:56;;;;;;;8.37;1.20;;;17.90;53.40;;;;;;5028826;28;20800;-70
2023/05/10 05:03:22;;;;;;;8.60;1.40;;;18.00;50.00;;;;;;5031105;28;20260;-69
2023/05/10 05:05:48;;;;;;;8.47;1.20;;;17.40;54.00;;;;;;5032107;28;20184;-69
2023/05/10 05:08:13;;;;;;;8.70;1.40;;;17.60;55.10;;;;;;5032543;28;20173;-70
2023/05/10 05:10:39;;;;;;;8.50;1.30;;;17.80;54.70;;;;;;5030373;28;20687;-69
2023/05/10 05:13:05;;;;;;;8.33;1.17;;;17.90;51.90;;;;;;5031651;28;20202;-69
2023/05/10 05:15:31;;;;;;;8.30;1.23;;;18.00;53.80;;;;;;5035249;28;20702;-69
2023/05/10 05:17:56;;;;;;;8.23;1.10;;;18.10;52.70;;;;;;5032349;28;20426;-69
2023/05/10 05:20:22;;;;;;;8.30;1.30;;;18.10;51.70;;;;;;5031003;28;20188;-69
2023/05/10 05:22:48;;;;;;;8.00;1.30;;;18.30;50.40;;;;;;5030361;28;20270;-69
2023/05/10 05:25:14;;;;;;;8.10;1.20;;;18.30;52.10;;;;;;5032202;28;20439;-69
2023/05/10 05:27:40;;;;;;;8.40;1.30;;;18.30;53.90;;;;;;5032197;28;20679;-70
2023/05/10 05:30:06;;;;;;;8.33;1.13;;;18.40;53.30;;;;;;5030951;28;20474;-71
2023/05/10 05:32:32;;;;;;;8.90;1.40;;;18.40;52.60;;;;;;5013132;28;20214;-70
2023/05/10 05:34:58;;;;;;;8.20;1.30;;;18.60;53.10;;;;;;5031411;28;20509;-69
2023/05/10 05:37:24;;;;;;;8.40;1.30;;;18.70;50.80;;;;;;5034570;28;20184;-69
2023/05/10 05:39:50;;;;;;;8.00;1.33;;;18.70;48.10;;;;;;5033497;28;20171;-69
2023/05/10 05:42:17;;;;;;;8.33;1.30;;;18.60;47.10;;;;;;5030764;28;20447;-70
2023/05/10 05:44:43;;;;;;;6.47;1.17;;;18.40;48.00;;;;;;5023733;28;20200;-69
2023/05/10 05:47:09;;;;;;;6.70;1.30;;;18.50;47.30;;;;;;5032269;28;20468;-69
2023/05/10 05:49:34;;;;;;;6.70;1.30;;;18.10;51.10;;;;;;5032008;28;20513;-70
2023/05/10 05:52:01;;;;;;;6.17;1.30;;;18.00;47.70;;;;;;5030385;28;21042;-69
2023/05/10 05:54:27;;;;;;;6.70;1.40;;;17.70;50.00;;;;;;5030606;28;20208;-70
2023/05/10 05:57:00;;;;;;;6.70;1.23;;;17.50;50.40;;;;;;5034940;28;20564;-70
2023/05/10 05:59:26;;;;;;;23.67;1.47;;;17.30;53.20;;;;;;5031444;28;20529;-70
2023/05/10 06:01:52;;;;;;;6.67;1.20;;;16.90;56.20;;;;;;5031501;28;20419;-69
2023/05/10 06:04:18;;;;;;;6.30;1.27;;;16.70;58.00;;;;;;5013028;28;20441;-69
2023/05/10 06:06:44;;;;;;;6.50;1.20;;;17.30;54.30;;;;;;5030077;28;20466;-69
2023/05/10 06:09:10;;;;;;;5.67;1.10;;;17.50;53.90;;;;;;5031481;28;20479;-69
2023/05/10 06:11:36;;;;;;;5.93;1.20;;;17.40;52.00;;;;;;5031384;28;20835;-69
2023/05/10 06:14:04;;;;;;;6.10;1.30;;;17.40;52.60;;;;;;5028073;28;20209;-70
2023/05/10 06:16:30;;;;;;;5.67;1.20;;;17.50;52.60;;;;;;5029353;28;20827;-69
2023/05/10 06:18:55;;;;;;;5.70;1.20;;;17.80;52.50;;;;;;5030998;28;20417;-69
2023/05/10 06:21:21;;;;;;;5.50;1.20;;;17.40;53.30;;;;;;5031284;28;20429;-70
2023/05/10 06:23:46;;;;;;;5.40;1.20;;;17.50;55.50;;;;;;5030503;28;20184;-69
2023/05/10 06:26:13;;;;;;;5.70;1.30;;;17.40;53.40;;;;;;5030973;28;20185;-69
2023/05/10 06:28:39;;;;;;;5.70;1.30;;;17.70;54.20;;;;;;5030095;28;20550;-69
2023/05/10 06:31:05;;;;;;;5.60;1.20;;;17.90;49.80;;;;;;5028538;28;20473;-69
2023/05/10 06:33:31;;;;;;;5.63;1.20;;;17.70;50.10;;;;;;5030219;28;20514;-69
2023/05/10 06:35:57;;;;;;;5.80;1.30;;;17.60;53.30;;;;;;5031146;28;20204;-69
2023/05/10 06:38:22;;;;;;;5.70;1.20;;;17.90;50.70;;;;;;5028992;28;20196;-69
2023/05/10 06:40:48;;;;;;;5.70;1.30;;;17.90;49.40;;;;;;5031020;28;20181;-69
2023/05/10 06:43:14;;;;;;;5.70;1.30;;;17.80;51.40;;;;;;5029547;28;20188;-70
2023/05/10 06:45:40;;;;;;;5.70;1.20;;;17.90;48.90;;;;;;5030855;28;20572;-70
2023/05/10 06:48:06;;;;;;;5.70;1.30;;;18.00;50.30;;;;;;5030750;28;20169;-70
2023/05/10 06:50:32;;;;;;;5.50;1.30;;;18.20;48.00;;;;;;5028741;28;20434;-69
2023/05/10 06:52:57;;;;;;;5.60;1.30;;;17.80;49.60;;;;;;5027566;28;20814;-73
2023/05/10 06:55:23;;;;;;;5.70;1.47;;;17.70;49.80;;;;;;5047876;22;20729;-73
2023/05/10 06:57:50;;;;;;;5.60;1.50;;;18.00;47.90;;;;;;5008366;28;20314;-74
2023/05/10 07:00:16;;;;;;;5.50;1.30;;;17.60;50.40;;;;;;5029968;28;20180;-71
2023/05/10 07:02:42;;;;;;;5.40;1.50;;;17.80;49.60;;;;;;5017589;28;20811;-71
2023/05/10 07:05:08;;;;;;;5.23;1.30;;;17.80;49.30;;;;;;5026383;28;20464;-72
2023/05/10 07:07:33;;;;;;;5.30;1.37;;;18.10;48.70;;;;;;5026576;28;20181;-72
2023/05/10 07:10:00;;;;;;;5.30;1.37;;;18.50;47.80;;;;;;5029568;28;20423;-72
2023/05/10 07:12:25;;;;;;;5.27;1.40;;;18.20;46.40;;;;;;5029128;28;20213;-71
2023/05/10 07:14:52;;;;;;;5.17;1.20;;;18.20;45.90;;;;;;5031363;28;20538;-72
2023/05/10 07:17:17;;;;;;;5.00;1.30;;;18.30;46.60;;;;;;5033186;28;20183;-71
2023/05/10 07:19:43;;;;;;;4.80;1.27;;;18.40;45.50;;;;;;5034469;28;20486;-71
2023/05/10 07:22:09;;;;;;;4.83;1.40;;;18.40;47.10;;;;;;5034391;28;20251;-71
2023/05/10 07:24:35;;;;;;;4.20;1.40;;;18.80;47.10;;;;;;5031630;28;20201;-70
2023/05/10 07:27:01;;;;;;;4.10;1.20;;;18.00;47.80;;;;;;5031777;28;20213;-70
2023/05/10 07:29:26;;;;;;;4.20;1.50;;;17.70;49.50;;;;;;5033219;28;20769;-70
2023/05/10 07:31:52;;;;;;;4.20;1.27;;;17.90;50.50;;;;;;5033867;28;20203;-70
2023/05/10 07:34:18;;;;;;;4.13;1.40;;;18.20;48.80;;;;;;5033400;28;20734;-70
2023/05/10 07:36:43;;;;;;;4.00;1.20;;;18.60;47.40;;;;;;5029576;28;20179;-70
2023/05/10 07:39:09;;;;;;;3.90;1.20;;;18.70;45.70;;;;;;5033350;28;20640;-70
2023/05/10 07:41:35;;;;;;;4.17;1.30;;;18.70;48.60;;;;;;5030215;28;20229;-69
2023/05/10 07:44:00;;;;;;;4.00;1.30;;;18.60;45.40;;;;;;5032424;28;20208;-69
2023/05/10 07:46:26;;;;;;;4.23;1.40;;;18.30;47.30;;;;;;5029113;28;20189;-70
2023/05/10 07:48:52;;;;;;;3.97;1.20;;;18.50;49.40;;;;;;5031812;28;20243;-70
2023/05/10 07:51:17;;;;;;;4.00;1.30;;;18.60;45.80;;;;;;5032959;28;20229;-70
2023/05/10 07:53:43;;;;;;;3.97;1.30;;;18.60;46.20;;;;;;5033060;28;20200;-69
2023/05/10 07:56:24;;;;;;;3.87;1.27;;;18.70;45.10;;;;;;5031790;28;20250;-70
2023/05/10 07:58:50;;;;;;;4.00;1.50;;;18.20;46.30;;;;;;5030862;28;20592;-70
2023/05/10 08:01:16;;;;;;;3.90;1.30;;;18.10;50.80;;;;;;5033204;28;20427;-70
2023/05/10 08:03:41;;;;;;;3.80;1.30;;;18.20;46.20;;;;;;5032073;28;20679;-70
2023/05/10 08:06:07;;;;;;;3.80;1.30;;;18.60;47.80;;;;;;5031559;28;20221;-70
2023/05/10 08:08:32;;;;;;;3.50;1.20;;;18.10;47.50;;;;;;5032351;28;20221;-70
2023/05/10 08:10:58;;;;;;;3.70;1.40;;;18.00;48.80;;;;;;5030315;28;20213;-70
2023/05/10 08:13:23;;;;;;;3.60;1.30;;;18.50;46.00;;;;;;5031308;28;20264;-73
2023/05/10 08:15:51;;;;;;;3.53;1.20;;;18.30;46.70;;;;;;5033213;28;20203;-70
2023/05/10 08:18:17;;;;;;;3.60;1.27;;;18.90;45.50;;;;;;5033314;28;20231;-71
2023/05/10 08:20:42;;;;;;;3.70;1.30;;;18.40;47.70;;;;;;5031042;28;20705;-73
2023/05/10 08:23:08;;;;;;;3.53;1.20;;;18.70;48.60;;;;;;5031035;28;20193;-71
2023/05/10 08:25:33;;;;;;;3.60;1.20;;;19.20;43.70;;;;;;5032611;28;20198;-70
2023/05/10 08:27:59;;;;;;;6.73;1.20;;;18.70;43.80;;;;;;5032721;28;20181;-71
2023/05/10 08:30:25;;;;;;;4.10;1.50;;;19.10;43.80;;;;;;5014056;28;20637;-72
2023/05/10 08:32:50;;;;;;;4.10;1.40;;;19.00;41.60;;;;;;5027963;28;20258;-70
2023/05/10 08:35:16;;;;;;;4.33;1.50;;;18.70;44.20;;;;;;5029606;28;20763;-70
2023/05/10 08:37:41;;;;;;;4.00;1.30;;;18.50;43.40;;;;;;5032800;28;20175;-70
2023/05/10 08:40:11;;;;;;;4.20;1.30;;;18.30;45.20;;;;;;5032930;28;20172;-70
2023/05/10 08:42:40;;;;;;;4.00;1.30;;;18.80;42.30;;;;;;5029757;28;20194;-71
2023/05/10 08:45:08;;;;;;;5.70;1.60;;;19.50;41.70;;;;;;5031006;28;20460;-70
2023/05/10 08:47:36;;;;;;;3.93;1.30;;;20.10;39.30;;;;;;5018306;28;20964;-69
2023/05/10 08:50:03;;;;;;;3.90;1.20;;;19.30;39.20;;;;;;5032618;28;20505;-69
2023/05/10 08:52:30;;;;;;;4.03;1.40;;;18.70;40.40;;;;;;5028939;28;20451;-70
2023/05/10 08:54:56;;;;;;;4.00;1.40;;;17.80;44.50;;;;;;5027832;28;20819;-70
2023/05/10 08:57:22;;;;;;;4.00;1.40;;;18.30;43.20;;;;;;5025693;28;20481;-70
2023/05/10 08:59:48;;;;;;;4.00;1.20;;;18.40;42.00;;;;;;5032511;28;20844;-71
2023/05/10 09:02:14;;;;;;;4.10;1.40;;;18.30;42.50;;;;;;5031066;28;20237;-70
2023/05/10 09:04:39;;;;;;;3.90;1.20;;;18.30;42.10;;;;;;5029364;28;20210;-71
2023/05/10 09:07:06;;;;;;;4.20;1.53;;;17.70;45.40;;;;;;5031087;28;20435;-70
2023/05/10 09:09:33;;;;;;;3.90;1.30;;;17.80;45.20;;;;;;5032294;28;20250;-70
2023/05/10 09:11:59;;;;;;;5.77;2.00;;;18.80;48.60;;;;;;5032139;28;20496;-70
2023/05/10 09:14:25;;;;;;;4.70;1.50;;;19.40;40.60;;;;;;5031581;28;20458;-70
2023/05/10 09:16:51;;;;;;;4.37;1.20;;;19.20;40.10;;;;;;5012571;28;20434;-70
2023/05/10 09:19:17;;;;;;;4.40;1.20;;;19.50;40.00;;;;;;5031115;28;20511;-70
2023/05/10 09:21:43;;;;;;;5.00;1.40;;;18.60;40.40;;;;;;5032501;28;20494;-70
2023/05/10 09:24:09;;;;;;;4.33;1.30;;;18.30;41.40;;;;;;5031528;28;20210;-69
2023/05/10 09:26:35;;;;;;;4.30;1.40;;;18.10;40.90;;;;;;5030100;28;20441;-70
2023/05/10 09:29:02;;;;;;;4.27;1.30;;;18.20;41.70;;;;;;5031027;28;20430;-70
2023/05/10 09:32:03;;;;;;;4.40;1.40;;;18.50;40.90;;;;;;5031636;28;20457;-70
2023/05/10 09:34:30;;;;;;;4.30;1.30;;;18.00;43.10;;;;;;4931373;29;20530;-70
2023/05/10 09:37:00;;;;;;;4.20;1.30;;;18.10;42.10;;;;;;4931476;29;21001;-70
2023/05/10 09:39:33;;;;;;;4.20;1.30;;;17.60;42.80;;;;;;4939115;29;20498;-70
2023/05/10 09:42:01;;;;;;;4.10;1.17;;;18.20;42.80;;;;;;4939931;29;20438;-70
2023/05/10 09:44:27;;;;;;;4.27;1.20;;;18.60;40.40;;;;;;4948626;29;20491;-70
2023/05/10 09:46:52;;;;;;;5.10;1.40;;;18.50;40.20;;;;;;4951302;29;20422;-70
2023/05/10 09:49:20;;;;;;;4.73;1.30;;;18.70;40.00;;;;;;4941085;28;20535;-70
2023/05/10 09:51:46;;;;;;;4.53;1.30;;;18.90;39.90;;;;;;4940492;28;20222;-70
2023/05/10 09:54:14;;;;;;;4.80;1.40;;;18.90;40.60;;;;;;4928016;28;20534;-70
2023/05/10 09:56:40;;;;;;;4.80;1.30;;;18.90;38.60;;;;;;4927864;29;20648;-70
2023/05/10 09:59:07;;;;;;;12.33;1.50;;;19.30;37.50;;;;;;4928509;29;20451;-72
2023/05/10 10:01:34;;;;;;;10.60;1.30;;;18.70;38.20;;;;;;4929465;29;20288;-70
2023/05/10 10:04:05;;;;;;;9.97;1.27;;;18.10;37.70;;;;;;4936581;29;20453;-70
2023/05/10 10:06:40;;;;;;;9.80;1.40;;;17.40;42.10;;;;;;4951069;29;20425;-70
2023/05/10 10:09:07;;;;;;;9.70;1.63;;;17.50;41.10;;;;;;4997652;28;20903;-70
2023/05/10 10:11:37;;;;;;;9.10;1.50;;;17.30;45.50;;;;;;5025599;28;20459;-70
2023/05/10 10:14:04;;;;;;;8.57;1.40;;;17.50;45.40;;;;;;5030838;28;20928;-70
2023/05/10 10:16:30;;;;;;;8.30;1.30;;;17.80;46.30;;;;;;5031022;28;20421;-70
2023/05/10 10:18:56;;;;;;;7.90;1.37;;;17.80;47.80;;;;;;5031336;28;20550;-70
2023/05/10 10:21:23;;;;;;;7.60;1.30;;;17.60;50.80;;;;;;5011467;28;20539;-70
2023/05/10 10:23:49;;;;;;;12.20;1.37;;;17.90;52.10;;;;;;5028132;28;20465;-70
2023/05/10 10:26:17;;;;;;;11.60;1.50;;;17.90;49.80;;;;;;5031058;28;20428;-70
2023/05/10 10:29:09;;;;;;;10.43;1.40;;;17.50;52.90;;;;;;5031136;28;20229;-70
2023/05/10 10:31:44;;;;;;;10.23;1.50;;;17.70;51.80;;;;;;5031020;28;20469;-70
2023/05/10 10:34:17;;;;;;;9.97;1.50;;;18.00;48.50;;;;;;5029409;28;20466;-70
2023/05/10 10:36:46;;;;;;;9.53;1.30;;;17.70;50.00;;;;;;5029815;28;20431;-69
2023/05/10 10:39:13;;;;;;;9.40;1.53;;;17.90;49.90;;;;;;5030856;28;20408;-70
2023/05/10 10:41:49;;;;;;;9.40;1.60;;;17.90;48.20;;;;;;5030854;28;20411;-70
2023/05/10 10:44:26;;;;;;;8.93;1.40;;;18.20;47.10;;;;;;5024957;28;20455;-70
2023/05/10 10:47:24;;;;;;;8.13;1.30;;;18.60;48.80;;;;;;5026295;28;21017;-71
2023/05/10 10:50:03;;;;;;;7.70;1.40;;;18.90;49.30;;;;;;5027327;28;20428;-71
2023/05/10 10:52:42;;;;;;;7.63;1.30;;;19.30;47.50;;;;;;5033499;28;20476;-70
2023/05/10 10:55:10;;;;;;;7.67;1.30;;;19.60;48.10;;;;;;5032802;28;20994;-70
2023/05/10 10:57:51;;;;;;;7.77;1.40;;;19.80;45.40;;;;;;5031324;28;20432;-71
2023/05/10 11:00:36;;;;;;;7.57;1.30;;;19.70;41.40;;;;;;5029805;28;20846;-70
2023/05/10 11:03:08;;;;;;;7.50;1.30;;;19.50;42.50;;;;;;5030963;28;20446;-71
2023/05/10 11:05:43;;;;;;;7.33;1.33;;;19.70;40.40;;;;;;5032820;28;20482;-70
2023/05/10 11:08:16;;;;;;;7.53;1.47;;;19.50;41.00;;;;;;5025352;28;20735;-70
2023/05/10 11:11:00;;;;;;;7.40;1.50;;;19.30;42.50;;;;;;5032951;28;20431;-70
2023/05/10 11:13:39;;;;;;;7.03;1.40;;;19.30;43.20;;;;;;5032669;28;20505;-70
2023/05/10 11:16:11;;;;;;;6.93;1.40;;;19.90;40.10;;;;;;5032415;28;20431;-71
2023/05/10 11:18:37;;;;;;;6.87;1.30;;;20.40;39.00;;;;;;5028901;28;20516;-70
2023/05/10 11:21:05;;;;;;;7.03;1.40;;;21.10;37.80;;;;;;5032217;28;20902;-72
2023/05/10 11:23:57;;;;;;;6.90;1.30;;;21.50;36.60;;;;;;5015158;28;20510;-70
2023/05/10 11:26:31;;;;;;;7.30;1.50;;;21.30;35.00;;;;;;5030414;28;20436;-70
2023/05/10 11:28:58;;;;;;;7.40;1.50;;;19.50;40.60;;;;;;5025831;28;20443;-71
2023/05/10 11:31:26;;;;;;;6.73;1.30;;;17.70;38.60;;;;;;5032709;28;20545;-70
2023/05/10 11:33:57;;;;;;;6.60;1.40;;;17.10;40.60;;;;;;5032193;28;20463;-70
2023/05/10 11:36:33;;;;;;;6.43;1.20;;;17.10;41.50;;;;;;5032923;28;20565;-70
2023/05/10 11:38:59;;;;;;;6.20;1.30;;;17.20;39.70;;;;;;5029859;28;20435;-70
2023/05/10 11:41:29;;;;;;;6.10;1.30;;;17.00;41.80;;;;;;5033050;28;20452;-70
2023/05/10 11:43:55;;;;;;;6.07;1.33;;;16.80;42.10;;;;;;5015078;28;20214;-71
2023/05/10 11:46:26;;;;;;;6.20;1.40;;;16.70;41.80;;;;;;5033047;28;20434;-71
2023/05/10 11:48:54;;;;;;;6.00;1.30;;;14.80;41.70;;;;;;5031334;28;21618;-70
2023/05/10 11:51:24;;;;;;;6.10;1.40;;;16.40;41.30;;;;;;5031364;28;20465;-71
2023/05/10 11:53:54;;;;;;;6.10;1.33;;;16.70;38.70;;;;;;5030361;28;21028;-70
2023/05/10 11:56:21;;;;;;;6.00;1.30;;;16.00;42.90;;;;;;5031118;28;20558;-70
2023/05/10 11:58:55;;;;;;;6.10;1.40;;;15.40;45.00;;;;;;5033794;28;20430;-70
2023/05/10 12:01:21;;;;;;;5.30;1.40;;;15.70;51.60;;;;;;5030850;28;20953;-70
2023/05/10 12:03:47;;;;;;;4.90;1.30;;;16.30;50.00;;;;;;5032666;28;20450;-70
2023/05/10 12:06:13;;;;;;;5.07;1.53;;;16.90;53.00;;;;;;5033485;28;20561;-70
2023/05/10 12:08:45;;;;;;;5.83;1.93;;;17.70;47.80;;;;;;5033395;28;20494;-70
2023/05/10 12:11:13;;;;;;;4.67;1.47;;;18.10;43.90;;;;;;5030551;28;20204;-71
2023/05/10 12:13:40;;;;;;;4.70;1.50;;;17.50;45.40;;;;;;5022625;28;20993;-70
2023/05/10 12:16:20;;;;;;;5.40;1.33;;;18.10;44.20;;;;;;5024784;28;20423;-71
2023/05/10 12:18:53;;;;;;;5.30;1.40;;;18.10;42.00;;;;;;5025811;28;20593;-70
2023/05/10 12:21:20;;;;;;;5.20;1.37;;;17.60;43.20;;;;;;5022244;28;20408;-70
2023/05/10 12:23:49;;;;;;;5.20;1.40;;;17.30;44.00;;;;;;5027039;28;20813;-71
2023/05/10 12:26:15;;;;;;;5.20;1.47;;;17.20;41.80;;;;;;5026077;28;21038;-70
2023/05/10 12:28:40;;;;;;;5.23;1.40;;;16.80;41.20;;;;;;5024648;28;20507;-71
2023/05/10 12:31:06;;;;;;;5.23;1.40;;;17.10;44.80;;;;;;5032906;28;20208;-70
2023/05/10 12:33:42;;;;;;;5.27;1.50;;;18.20;40.30;;;;;;5029504;28;20214;-70
2023/05/10 12:36:11;;;;;;;5.10;1.40;;;18.80;40.00;;;;;;5018520;28;20193;-71
2023/05/10 12:38:47;;;;;;;5.20;1.50;;;19.50;37.00;;;;;;5030702;28;20917;-71
2023/05/10 12:41:15;;;;;;;5.90;1.60;;;19.20;35.00;;;;;;5026928;28;20444;-71
2023/05/10 12:43:41;;;;;;;5.37;1.50;;;19.20;39.50;;;;;;5027263;28;20535;-70
2023/05/10 12:46:08;;;;;;;5.40;1.60;;;18.90;33.50;;;;;;5030470;28;20957;-71
2023/05/10 12:48:35;;;;;;;5.80;1.50;;;18.10;36.20;;;;;;5031176;28;20469;-71
2023/05/10 12:51:02;;;;;;;5.10;1.30;;;17.70;38.30;;;;;;5031269;28;20458;-70